createdAt,value
2022-10-06T00:00:53.316Z,1.30
2022-10-06T00:03:23.286Z,1.03
2022-10-06T00:05:51.776Z,1.23
2022-10-06T00:08:20.034Z,1.00
2022-10-06T00:10:50.772Z,1.23
2022-10-06T00:13:19.019Z,1.60
2022-10-06T00:15:48.654Z,1.73
2022-10-06T00:18:19.420Z,1.03
2022-10-06T00:20:55.046Z,1.00
2022-10-06T00:23:23.305Z,1.20
2022-10-06T00:25:51.684Z,1.60
2022-10-06T00:28:19.983Z,1.33
2022-10-06T00:30:51.163Z,1.03
2022-10-06T00:33:19.555Z,1.50
2022-10-06T00:35:48.284Z,1.40
2022-10-06T00:38:18.154Z,1.00
2022-10-06T00:40:49.395Z,1.23
2022-10-06T00:43:57.591Z,1.40
2022-10-06T00:46:34.778Z,1.40
2022-10-06T00:49:09.725Z,1.60
2022-10-06T00:51:41.455Z,1.70
2022-10-06T00:54:10.109Z,1.97
2022-10-06T00:56:40.623Z,1.10
2022-10-06T00:59:12.167Z,1.30
2022-10-06T01:01:46.689Z,1.80
2022-10-06T01:04:17.803Z,1.63
2022-10-06T01:06:49.395Z,2.07
2022-10-06T01:09:20.794Z,1.70
2022-10-06T01:11:51.489Z,1.60
2022-10-06T01:14:22.715Z,1.63
2022-10-06T01:16:59.809Z,1.53
2022-10-06T01:19:40.705Z,1.80
2022-10-06T01:22:10.412Z,2.20
2022-10-06T01:24:40.981Z,1.57
2022-10-06T01:27:12.520Z,1.57
2022-10-06T01:29:41.893Z,1.70
2022-10-06T01:32:10.868Z,1.80
2022-10-06T01:34:38.956Z,1.87
2022-10-06T01:37:07.483Z,1.77
2022-10-06T01:39:35.828Z,1.77
2022-10-06T01:42:05.732Z,1.50
2022-10-06T01:44:34.189Z,1.70
2022-10-06T01:47:02.389Z,1.83
2022-10-06T01:49:30.593Z,1.40
2022-10-06T01:51:58.886Z,1.70
2022-10-06T01:54:27.049Z,1.70
2022-10-06T01:56:56.501Z,2.03
2022-10-06T01:59:26.430Z,1.77
2022-10-06T02:01:54.968Z,2.07
2022-10-06T02:04:23.395Z,1.57
2022-10-06T02:06:51.744Z,2.17
2022-10-06T02:09:20.041Z,1.80
2022-10-06T02:11:48.213Z,1.17
2022-10-06T02:14:18.137Z,1.37
2022-10-06T02:16:47.669Z,2.10
2022-10-06T02:19:16.335Z,1.90
2022-10-06T02:21:44.621Z,1.73
2022-10-06T02:24:12.785Z,2.10
2022-10-06T02:26:41.307Z,2.77
2022-10-06T02:29:09.760Z,2.00
2022-10-06T02:31:37.913Z,1.80
2022-10-06T02:34:07.779Z,1.90
2022-10-06T02:36:35.984Z,2.00
2022-10-06T02:39:04.857Z,2.23
2022-10-06T02:41:32.973Z,1.40
2022-10-06T02:44:01.818Z,2.27
2022-10-06T02:46:31.606Z,1.90
2022-10-06T02:48:59.864Z,1.87
2022-10-06T02:51:30.135Z,1.83
2022-10-06T02:53:58.279Z,1.87
2022-10-06T02:56:27.220Z,1.80
2022-10-06T02:58:55.623Z,2.40
2022-10-06T03:01:35.977Z,2.40
2022-10-06T03:04:12.092Z,2.37
2022-10-06T03:06:44.075Z,2.50
2022-10-06T03:09:23.482Z,2.37
2022-10-06T03:11:52.905Z,2.40
2022-10-06T03:14:36.427Z,2.27
2022-10-06T03:17:05.979Z,3.17
2022-10-06T03:19:34.115Z,2.53
2022-10-06T03:22:04.845Z,2.37
2022-10-06T03:24:42.693Z,2.33
2022-10-06T03:27:11.717Z,2.80
2022-10-06T03:29:40.002Z,3.13
2022-10-06T03:32:09.041Z,2.70
2022-10-06T03:34:38.291Z,3.33
2022-10-06T03:37:10.922Z,2.03
2022-10-06T03:39:39.734Z,2.27
2022-10-06T03:42:07.923Z,1.83
2022-10-06T03:44:36.141Z,2.00
2022-10-06T03:47:05.156Z,1.97
2022-10-06T03:49:34.191Z,2.70
2022-10-06T03:52:02.310Z,2.60
2022-10-06T03:54:36.310Z,2.37
2022-10-06T03:57:04.634Z,1.80
2022-10-06T03:59:34.349Z,1.87
2022-10-06T04:02:05.500Z,2.77
2022-10-06T04:04:37.505Z,1.73
2022-10-06T04:07:12.805Z,1.50
2022-10-06T04:09:43.420Z,2.67
2022-10-06T04:12:13.026Z,1.70
2022-10-06T04:14:43.645Z,2.20
2022-10-06T04:17:12.253Z,2.30
2022-10-06T04:19:42.093Z,2.40
2022-10-06T04:22:11.855Z,1.77
2022-10-06T04:24:40.498Z,2.43
2022-10-06T04:27:28.524Z,3.07
2022-10-06T04:30:17.154Z,2.10
2022-10-06T04:32:48.347Z,1.80
2022-10-06T04:35:17.295Z,2.10
2022-10-06T04:37:46.624Z,1.73
2022-10-06T04:40:15.635Z,2.37
2022-10-06T04:42:45.293Z,2.53
2022-10-06T04:45:16.255Z,1.90
2022-10-06T04:47:45.158Z,2.70
2022-10-06T04:50:13.499Z,1.77
2022-10-06T04:53:01.394Z,1.90
2022-10-06T04:55:29.644Z,2.00
2022-10-06T04:57:59.230Z,2.27
2022-10-06T05:00:28.560Z,2.43
2022-10-06T05:02:57.933Z,2.03
2022-10-06T05:05:26.102Z,2.57
2022-10-06T05:07:56.079Z,2.87
2022-10-06T05:10:24.381Z,2.57
2022-10-06T05:12:52.501Z,1.80
2022-10-06T05:15:22.113Z,2.57
2022-10-06T05:17:50.449Z,2.73
2022-10-06T05:20:22.752Z,2.33
2022-10-06T05:22:51.623Z,3.20
2022-10-06T05:25:20.629Z,2.60
2022-10-06T05:27:48.871Z,2.23
2022-10-06T05:30:17.252Z,2.00
2022-10-06T05:32:50.393Z,2.60
2022-10-06T05:35:19.315Z,2.43
2022-10-06T05:37:47.682Z,2.50
2022-10-06T05:40:16.266Z,2.63
2022-10-06T05:42:44.454Z,2.20
2022-10-06T05:45:12.656Z,3.10
2022-10-06T05:47:42.213Z,2.80
2022-10-06T05:50:12.004Z,2.27
2022-10-06T05:52:40.584Z,3.00
2022-10-06T05:55:10.302Z,2.17
2022-10-06T05:57:38.754Z,2.60
2022-10-06T06:00:08.447Z,2.77
2022-10-06T06:02:41.655Z,3.53
2022-10-06T06:05:13.108Z,2.83
2022-10-06T06:07:41.937Z,2.47
2022-10-06T06:10:10.513Z,2.60
2022-10-06T06:12:38.737Z,2.37
2022-10-06T06:15:47.317Z,2.17
2022-10-06T06:18:15.520Z,2.90
2022-10-06T06:20:45.366Z,2.37
2022-10-06T06:23:13.584Z,2.10
2022-10-06T06:25:44.273Z,2.50
2022-10-06T06:28:13.029Z,2.03
2022-10-06T06:30:41.662Z,2.60
2022-10-06T06:33:10.909Z,2.67
2022-10-06T06:35:39.557Z,2.50
2022-10-06T06:38:11.883Z,1.87
2022-10-06T06:40:41.773Z,2.30
2022-10-06T06:43:13.289Z,1.70
2022-10-06T06:46:04.236Z,2.47
2022-10-06T06:48:49.924Z,3.33
2022-10-06T06:51:21.262Z,2.40
2022-10-06T06:53:51.400Z,2.40
2022-10-06T06:56:21.803Z,2.00
2022-10-06T06:58:50.262Z,2.53
2022-10-06T07:01:19.999Z,1.90
2022-10-06T07:03:57.613Z,2.73
2022-10-06T07:06:30.468Z,2.40
2022-10-06T07:09:02.285Z,2.23
2022-10-06T07:11:33.364Z,2.77
2022-10-06T07:14:04.812Z,2.70
2022-10-06T07:16:51.781Z,2.90
2022-10-06T07:19:39.744Z,2.67
2022-10-06T07:22:33.630Z,2.20
2022-10-06T07:25:15.005Z,1.93
2022-10-06T07:27:51.124Z,2.23
2022-10-06T07:30:25.668Z,2.83
2022-10-06T07:33:00.097Z,2.53
2022-10-06T07:35:29.271Z,2.53
2022-10-06T07:38:02.243Z,2.30
2022-10-06T07:40:33.554Z,2.83
2022-10-06T07:43:02.647Z,2.30
2022-10-06T07:45:41.647Z,1.90
2022-10-06T07:48:18.956Z,2.37
2022-10-06T07:50:59.724Z,1.87
2022-10-06T07:53:32.777Z,2.37
2022-10-06T07:56:16.062Z,2.20
2022-10-06T07:58:50.377Z,2.60
2022-10-06T08:01:20.460Z,2.17
2022-10-06T08:03:50.665Z,3.23
2022-10-06T08:06:19.859Z,2.73
2022-10-06T08:08:52.586Z,2.03
2022-10-06T08:11:22.848Z,1.97
2022-10-06T08:13:51.862Z,2.10
2022-10-06T08:16:21.840Z,2.00
2022-10-06T08:18:53.294Z,2.27
2022-10-06T08:21:26.151Z,2.40
2022-10-06T08:23:55.321Z,2.10
2022-10-06T08:26:26.265Z,1.90
2022-10-06T08:28:57.721Z,2.03
2022-10-06T08:31:26.093Z,2.20
2022-10-06T08:33:57.145Z,2.77
2022-10-06T08:36:31.514Z,2.43
2022-10-06T08:39:00.909Z,1.90
2022-10-06T08:41:39.759Z,1.77
2022-10-06T08:44:19.738Z,2.00
2022-10-06T08:46:55.402Z,1.80
2022-10-06T08:49:25.904Z,1.93
2022-10-06T08:52:02.161Z,2.30
2022-10-06T08:54:37.180Z,1.83
2022-10-06T08:57:14.275Z,2.27
2022-10-06T08:59:46.151Z,2.10
2022-10-06T09:02:24.384Z,2.57
2022-10-06T09:04:52.684Z,2.03
2022-10-06T09:07:30.882Z,2.17
2022-10-06T09:10:13.331Z,1.90
2022-10-06T09:12:47.696Z,1.80
2022-10-06T09:15:30.175Z,1.93
2022-10-06T09:18:02.609Z,1.80
2022-10-06T09:20:35.701Z,1.80
2022-10-06T09:23:05.860Z,2.13
2022-10-06T09:25:34.710Z,1.80
2022-10-06T09:28:05.872Z,1.73
2022-10-06T09:30:34.090Z,1.87
2022-10-06T09:33:05.663Z,1.67
2022-10-06T09:35:37.170Z,2.20
2022-10-06T09:38:09.012Z,1.50
2022-10-06T09:40:40.009Z,2.07
2022-10-06T09:43:20.389Z,1.50
2022-10-06T09:45:49.363Z,2.28
2022-10-06T09:48:24.812Z,1.48
2022-10-06T09:51:13.327Z,1.67
2022-10-06T09:53:42.179Z,1.60
2022-10-06T09:56:18.824Z,1.20
2022-10-06T09:58:57.543Z,2.17
2022-10-06T10:01:31.835Z,1.75
2022-10-06T10:04:19.865Z,2.75
2022-10-06T10:06:48.977Z,1.33
2022-10-06T10:09:27.090Z,1.38
2022-10-06T10:12:32.105Z,1.73
2022-10-06T10:15:04.609Z,1.50
2022-10-06T10:17:46.164Z,1.35
2022-10-06T10:20:29.184Z,1.63
2022-10-06T10:23:00.584Z,1.65
2022-10-06T10:25:51.915Z,1.65
2022-10-06T10:28:35.242Z,1.25
2022-10-06T10:31:14.281Z,1.38
2022-10-06T10:34:05.076Z,0.82
2022-10-06T10:36:46.085Z,1.10
2022-10-06T10:39:22.015Z,1.13
2022-10-06T10:41:53.808Z,0.90
2022-10-06T10:44:31.152Z,1.30
2022-10-06T10:47:12.512Z,1.05
2022-10-06T10:49:43.955Z,1.15
2022-10-06T10:52:16.618Z,1.52
2022-10-06T10:54:50.248Z,1.45
2022-10-06T10:57:22.839Z,1.23
2022-10-06T10:59:59.002Z,1.02
2022-10-06T11:02:29.591Z,1.55
2022-10-06T11:05:03.988Z,1.08
2022-10-06T11:07:37.542Z,1.50
2022-10-06T11:10:14.445Z,1.42
2022-10-06T11:13:06.939Z,1.27
2022-10-06T11:15:51.963Z,1.48
2022-10-06T11:18:35.348Z,1.52
2022-10-06T11:21:11.598Z,1.48
2022-10-06T11:23:51.014Z,1.40
2022-10-06T11:26:36.888Z,1.67
2022-10-06T11:29:20.259Z,1.45
2022-10-06T11:31:58.396Z,1.15
2022-10-06T11:34:28.000Z,1.00
2022-10-06T11:37:03.495Z,1.40
2022-10-06T11:39:41.182Z,1.25
2022-10-06T11:42:21.232Z,1.10
2022-10-06T11:44:57.035Z,1.23
2022-10-06T11:47:36.549Z,0.93
2022-10-06T11:50:33.333Z,1.38
2022-10-06T11:53:01.862Z,1.67
2022-10-06T11:55:30.922Z,1.00
2022-10-06T12:01:08.373Z,1.70
2022-10-06T12:04:05.441Z,1.38
2022-10-06T12:06:57.837Z,1.30
2022-10-06T12:09:41.080Z,1.55
2022-10-06T12:13:06.318Z,1.05
2022-10-06T12:17:05.591Z,1.30
2022-10-06T12:18:43.469Z,1.20
2022-10-06T12:21:24.009Z,1.30
2022-10-06T12:24:18.505Z,1.20
2022-10-06T12:26:55.207Z,0.90
2022-10-06T12:29:38.023Z,1.05
2022-10-06T12:32:21.505Z,0.82
2022-10-06T12:35:04.317Z,0.70
2022-10-06T12:37:43.224Z,0.80
2022-10-06T12:40:48.812Z,1.00
2022-10-06T12:43:57.055Z,0.60
2022-10-06T12:46:46.510Z,0.60
2022-10-06T12:49:41.453Z,0.95
2022-10-06T12:52:20.428Z,1.15
2022-10-06T12:55:01.312Z,0.40
2022-10-06T12:57:30.830Z,0.60
2022-10-06T13:00:00.401Z,0.63
2022-10-06T13:02:29.430Z,0.88
2022-10-06T13:05:00.893Z,0.75
2022-10-06T13:07:31.708Z,0.60
2022-10-06T13:10:19.393Z,0.80
2022-10-06T13:12:50.334Z,0.60
2022-10-06T13:15:25.217Z,0.60
2022-10-06T13:17:55.891Z,0.50
2022-10-06T13:20:36.707Z,0.70
2022-10-06T13:23:15.550Z,0.73
2022-10-06T13:25:45.878Z,0.60
2022-10-06T13:28:26.408Z,0.52
2022-10-06T13:30:58.406Z,0.70
2022-10-06T13:33:29.926Z,1.00
2022-10-06T13:35:59.484Z,0.85
2022-10-06T13:38:31.790Z,0.60
2022-10-06T13:41:19.262Z,0.70
2022-10-06T13:43:50.693Z,0.68
2022-10-06T13:46:23.361Z,0.68
2022-10-06T13:48:55.669Z,0.50
2022-10-06T13:51:29.790Z,0.73
2022-10-06T13:53:59.569Z,0.80
2022-10-06T13:56:38.794Z,0.75
2022-10-06T13:59:34.742Z,0.73
2022-10-06T14:02:22.788Z,0.90
2022-10-06T14:05:29.403Z,0.90
2022-10-06T14:08:00.788Z,0.77
2022-10-06T14:10:35.833Z,0.90
2022-10-06T14:13:12.076Z,0.77
2022-10-06T14:15:48.537Z,0.80
2022-10-06T14:18:23.197Z,0.90
2022-10-06T14:20:53.291Z,1.33
2022-10-06T14:23:44.728Z,1.02
2022-10-06T14:26:14.510Z,1.00
2022-10-06T14:28:47.138Z,1.08
2022-10-06T14:31:15.654Z,0.82
2022-10-06T14:33:46.538Z,0.93
2022-10-06T14:36:21.075Z,1.15
2022-10-06T14:38:50.330Z,1.30
2022-10-06T14:41:20.433Z,1.13
2022-10-06T14:43:49.207Z,1.10
2022-10-06T14:46:17.398Z,1.30
2022-10-06T14:48:46.955Z,1.15
2022-10-06T14:51:16.689Z,1.27
2022-10-06T14:53:45.054Z,0.98
2022-10-06T14:56:15.925Z,0.90
2022-10-06T14:58:45.906Z,1.35
2022-10-06T15:01:17.229Z,1.55
2022-10-06T15:03:52.350Z,1.27
2022-10-06T15:06:37.689Z,1.33
2022-10-06T15:09:06.303Z,1.20
2022-10-06T15:11:35.431Z,1.23
2022-10-06T15:14:04.355Z,1.35
2022-10-06T15:16:34.567Z,1.42
2022-10-06T15:19:05.602Z,1.58
2022-10-06T15:21:34.483Z,2.13
2022-10-06T15:24:04.767Z,1.45
2022-10-06T15:26:51.175Z,1.20
2022-10-06T15:29:19.533Z,1.13
2022-10-06T15:31:51.103Z,1.27
2022-10-06T15:34:24.370Z,1.60
2022-10-06T15:36:53.201Z,1.77
2022-10-06T15:39:23.610Z,1.73
2022-10-06T15:41:52.433Z,1.40
2022-10-06T15:44:20.969Z,1.50
2022-10-06T15:46:50.653Z,1.23
2022-10-06T15:49:21.262Z,1.38
2022-10-06T15:51:52.118Z,1.73
2022-10-06T15:54:22.041Z,1.30
2022-10-06T15:56:52.194Z,1.20
2022-10-06T15:59:24.162Z,1.20
2022-10-06T16:01:56.224Z,1.48
2022-10-06T16:04:34.471Z,1.45
2022-10-06T16:07:03.528Z,1.27
2022-10-06T16:09:33.332Z,1.67
2022-10-06T16:12:03.527Z,1.15
2022-10-06T16:14:32.344Z,1.38
2022-10-06T16:17:02.428Z,1.73
2022-10-06T16:19:33.089Z,2.05
2022-10-06T16:22:02.138Z,1.35
2022-10-06T16:24:30.338Z,1.35
2022-10-06T16:27:00.056Z,1.48
2022-10-06T16:29:29.282Z,1.40
2022-10-06T16:31:59.095Z,1.30
2022-10-06T16:34:27.252Z,1.23
2022-10-06T16:36:56.826Z,1.60
2022-10-06T16:39:25.433Z,1.10
2022-10-06T16:41:54.170Z,1.10
2022-10-06T16:44:22.385Z,1.40
2022-10-06T16:46:50.729Z,1.47
2022-10-06T16:49:19.711Z,1.30
2022-10-06T16:51:47.938Z,1.60
2022-10-06T16:54:18.277Z,1.50
2022-10-06T16:56:48.534Z,1.60
2022-10-06T16:59:18.264Z,1.63
2022-10-06T17:01:47.590Z,2.03
2022-10-06T17:04:18.198Z,1.23
2022-10-06T17:06:48.576Z,1.80
2022-10-06T17:09:19.937Z,1.93
2022-10-06T17:11:49.679Z,2.10
2022-10-06T17:14:18.470Z,2.00
2022-10-06T17:16:48.275Z,2.10
2022-10-06T17:19:18.022Z,2.40
2022-10-06T17:21:49.542Z,2.37
2022-10-06T17:24:22.641Z,2.00
2022-10-06T17:26:51.306Z,1.93
2022-10-06T17:29:21.467Z,1.70
2022-10-06T17:31:58.801Z,1.67
2022-10-06T17:34:32.229Z,1.70
2022-10-06T17:37:02.630Z,1.70
2022-10-06T17:39:32.295Z,2.20
2022-10-06T17:42:00.572Z,1.77
2022-10-06T17:44:29.284Z,1.90
2022-10-06T17:46:58.955Z,2.00
2022-10-06T17:49:28.669Z,1.90
2022-10-06T17:51:56.894Z,1.90
2022-10-06T17:54:27.206Z,2.47
2022-10-06T17:56:59.204Z,2.00
2022-10-06T17:59:30.613Z,1.60
2022-10-06T18:02:00.782Z,1.70
2022-10-06T18:04:29.409Z,2.00
2022-10-06T18:06:58.034Z,2.93
2022-10-06T18:09:26.682Z,2.30
2022-10-06T18:11:56.740Z,2.00
2022-10-06T18:14:27.297Z,2.40
2022-10-06T18:16:57.684Z,2.47
2022-10-06T18:19:29.990Z,2.17
2022-10-06T18:22:02.046Z,1.90
2022-10-06T18:24:31.991Z,2.20
2022-10-06T18:27:02.052Z,2.17
2022-10-06T18:29:32.126Z,2.00
2022-10-06T18:32:40.263Z,2.40
2022-10-06T18:37:37.334Z,2.27
2022-10-06T18:40:08.623Z,2.30
2022-10-06T18:42:38.521Z,2.23
2022-10-06T18:45:25.738Z,3.13
2022-10-06T18:48:11.508Z,2.57
2022-10-06T18:50:39.698Z,2.47
2022-10-06T18:53:08.026Z,2.83
2022-10-06T18:55:36.345Z,2.97
2022-10-06T18:58:06.461Z,3.27
2022-10-06T19:00:34.844Z,2.93
2022-10-06T19:03:03.538Z,3.13
2022-10-06T19:05:32.559Z,2.83
2022-10-06T19:08:01.748Z,3.00
2022-10-06T19:10:30.840Z,3.37
2022-10-06T19:12:59.320Z,3.27
2022-10-06T19:15:28.912Z,4.10
2022-10-06T19:17:57.115Z,3.00
2022-10-06T19:20:25.344Z,2.83
2022-10-06T19:22:54.272Z,3.00
2022-10-06T19:25:23.944Z,3.27
2022-10-06T19:27:52.265Z,3.57
2022-10-06T19:30:23.084Z,3.57
2022-10-06T19:32:52.716Z,3.03
2022-10-06T19:35:21.029Z,3.50
2022-10-06T19:37:51.121Z,4.17
2022-10-06T19:40:19.435Z,4.00
2022-10-06T19:42:49.408Z,3.70
2022-10-06T19:45:21.011Z,3.70
2022-10-06T19:47:50.072Z,3.10
2022-10-06T19:50:19.914Z,3.20
2022-10-06T19:52:48.631Z,3.43
2022-10-06T19:55:17.574Z,3.33
2022-10-06T19:57:46.129Z,3.23
2022-10-06T20:00:16.324Z,3.97
2022-10-06T20:02:45.839Z,3.37
2022-10-06T20:05:16.068Z,3.47
2022-10-06T20:07:47.458Z,3.40
2022-10-06T20:10:16.492Z,3.70
2022-10-06T20:12:45.245Z,3.90
2022-10-06T20:15:14.156Z,3.67
2022-10-06T20:17:44.503Z,3.57
2022-10-06T20:20:13.784Z,3.90
2022-10-06T20:22:42.460Z,4.33
2022-10-06T20:25:12.124Z,4.97
2022-10-06T20:27:40.415Z,3.97
2022-10-06T20:30:09.683Z,4.13
2022-10-06T20:32:37.886Z,3.27
2022-10-06T20:35:06.530Z,4.17
2022-10-06T20:37:34.715Z,4.00
2022-10-06T20:40:20.439Z,3.40
2022-10-06T20:42:54.756Z,3.87
2022-10-06T20:45:23.474Z,3.83
2022-10-06T20:47:51.630Z,4.77
2022-10-06T20:50:20.128Z,3.80
2022-10-06T20:52:48.610Z,3.90
2022-10-06T20:55:17.053Z,3.63
2022-10-06T20:57:45.513Z,3.67
2022-10-06T21:00:16.270Z,3.97
2022-10-06T21:02:45.222Z,4.00
2022-10-06T21:05:13.453Z,3.87
2022-10-06T21:07:41.956Z,3.70
2022-10-06T21:10:10.927Z,3.93
2022-10-06T21:12:39.026Z,3.53
2022-10-06T21:15:07.960Z,3.83
2022-10-06T21:17:37.545Z,3.90
2022-10-06T21:20:06.372Z,3.60
2022-10-06T21:22:34.487Z,3.60
2022-10-06T21:25:02.541Z,3.90
2022-10-06T21:27:30.710Z,3.13
2022-10-06T21:29:58.801Z,3.07
2022-10-06T21:32:27.000Z,3.33
2022-10-06T21:34:59.563Z,3.40
2022-10-06T21:37:27.749Z,3.20
2022-10-06T21:40:01.334Z,2.83
2022-10-06T21:42:31.300Z,3.00
2022-10-06T21:44:59.492Z,3.20
2022-10-06T21:47:27.690Z,3.40
2022-10-06T21:49:57.244Z,2.97
2022-10-06T21:52:25.357Z,3.37
2022-10-06T21:54:53.508Z,3.33
2022-10-06T21:57:21.733Z,3.97
2022-10-06T21:59:49.853Z,3.00
2022-10-06T22:02:17.961Z,3.33
2022-10-06T22:04:46.130Z,3.33
2022-10-06T22:07:15.611Z,3.30
2022-10-06T22:09:43.820Z,3.03
2022-10-06T22:12:12.034Z,3.57
2022-10-06T22:14:40.203Z,2.93
2022-10-06T22:17:08.322Z,3.37
2022-10-06T22:19:36.517Z,3.23
2022-10-06T22:22:04.810Z,2.70
2022-10-06T22:24:34.318Z,3.13
2022-10-06T22:27:02.488Z,3.10
2022-10-06T22:29:30.825Z,3.00
2022-10-06T22:31:59.035Z,2.80
2022-10-06T22:34:28.088Z,3.40
2022-10-06T22:36:56.232Z,3.20
2022-10-06T22:39:24.337Z,2.93
2022-10-06T22:41:54.010Z,2.83
2022-10-06T22:44:22.093Z,2.80
2022-10-06T22:46:50.233Z,3.87
2022-10-06T22:49:18.387Z,3.40
2022-10-06T22:51:46.530Z,3.10
2022-10-06T22:54:18.996Z,3.30
2022-10-06T22:56:47.270Z,3.03
2022-10-06T22:59:16.769Z,2.93
2022-10-06T23:01:45.322Z,3.30
2022-10-06T23:04:13.483Z,3.30
2022-10-06T23:06:41.581Z,3.50
2022-10-06T23:09:09.780Z,2.90
2022-10-06T23:11:37.944Z,2.83
2022-10-06T23:14:05.994Z,3.00
2022-10-06T23:16:35.470Z,2.80
2022-10-06T23:19:03.651Z,3.50
2022-10-06T23:21:32.329Z,4.13
2022-10-06T23:24:01.275Z,2.93
2022-10-06T23:26:29.555Z,3.50
2022-10-06T23:28:59.448Z,3.23
2022-10-06T23:31:29.035Z,3.43
2022-10-06T23:33:59.120Z,3.37
2022-10-06T23:36:27.499Z,3.17
2022-10-06T23:38:56.500Z,3.00
2022-10-06T23:41:24.665Z,3.07
2022-10-06T23:43:53.134Z,2.70
2022-10-06T23:46:21.316Z,3.47
2022-10-06T23:48:49.487Z,2.80
2022-10-06T23:51:18.962Z,2.83
2022-10-06T23:53:47.640Z,3.17
2022-10-06T23:56:15.777Z,2.90
2022-10-06T23:58:43.940Z,2.47
